Time;durP1;ratioP1;P1;durP2;ratioP2;P2;SDS_P1;SDS_P2;PMS_P1;PMS_P2;Temp;Humidity;BMP_temperature;BMP_pressure;BME280_temperature;BME280_humidity;BME280_pressure;Samples;Min_cycle;Max_cycle;Signal;HPM_P1;HPM_P2
2023/05/10 00:01:33;;;;;;;16.27;13.65;;;14.10;99.90;;;;;;4935402;28;20054;-80
2023/05/10 00:03:59;;;;;;;14.52;12.98;;;14.10;99.90;;;;;;4934828;28;20494;-81
2023/05/10 00:06:25;;;;;;;13.60;11.75;;;14.00;99.90;;;;;;4953749;28;20074;-81
2023/05/10 00:08:51;;;;;;;12.10;10.90;;;14.00;99.90;;;;;;4942955;28;20066;-81
2023/05/10 00:11:17;;;;;;;13.27;11.88;;;14.00;99.90;;;;;;4958226;28;20059;-81
2023/05/10 00:13:43;;;;;;;13.50;12.20;;;13.90;99.90;;;;;;4998909;28;20041;-81
2023/05/10 00:16:09;;;;;;;16.05;14.45;;;13.90;99.90;;;;;;4967323;28;20046;-81
2023/05/10 00:18:34;;;;;;;15.80;14.20;;;13.80;99.90;;;;;;4983548;28;20062;-80
2023/05/10 00:21:00;;;;;;;17.17;15.57;;;13.80;99.90;;;;;;4943877;28;20047;-79
2023/05/10 00:23:26;;;;;;;18.45;16.60;;;13.70;99.90;;;;;;4936845;28;20039;-80
2023/05/10 00:25:52;;;;;;;16.90;15.30;;;13.70;99.90;;;;;;4949809;28;20045;-80
2023/05/10 00:28:17;;;;;;;17.00;15.25;;;13.70;99.90;;;;;;4916521;28;20045;-81
2023/05/10 00:30:43;;;;;;;18.65;15.88;;;13.60;99.90;;;;;;4964755;28;20051;-80
2023/05/10 00:33:09;;;;;;;17.33;15.63;;;13.60;99.90;;;;;;4947403;28;20045;-80
2023/05/10 00:35:35;;;;;;;17.85;16.15;;;13.60;99.90;;;;;;4913527;28;20043;-80
2023/05/10 00:38:01;;;;;;;17.23;15.50;;;13.60;99.90;;;;;;4944629;28;20565;-79
2023/05/10 00:40:28;;;;;;;17.15;15.45;;;13.60;99.90;;;;;;4930201;28;20070;-80
2023/05/10 00:42:54;;;;;;;15.07;13.63;;;13.60;99.90;;;;;;4977903;28;20046;-80
2023/05/10 00:45:20;;;;;;;16.95;14.85;;;13.50;99.90;;;;;;4945168;28;20050;-80
2023/05/10 00:47:45;;;;;;;14.57;13.13;;;13.50;99.90;;;;;;4975264;28;20125;-79
2023/05/10 00:50:15;;;;;;;13.70;12.20;;;13.50;99.90;;;;;;4975817;28;20519;-80
2023/05/10 00:52:42;;;;;;;15.25;13.65;;;13.50;99.90;;;;;;4931989;28;20038;-80
2023/05/10 00:55:10;;;;;;;13.05;11.65;;;13.50;99.90;;;;;;4945811;28;20046;-80
2023/05/10 00:57:36;;;;;;;14.02;12.50;;;13.50;99.90;;;;;;4960498;28;20057;-80
2023/05/10 01:00:03;;;;;;;14.75;13.18;;;13.30;99.90;;;;;;4944295;28;20047;-79
2023/05/10 01:02:29;;;;;;;14.10;11.98;;;13.40;99.90;;;;;;4976704;28;20430;-80
2023/05/10 01:04:55;;;;;;;13.38;11.95;;;13.40;99.90;;;;;;4928863;28;20102;-79
2023/05/10 01:07:20;;;;;;;16.13;12.73;;;13.40;99.90;;;;;;4945073;28;20501;-79
2023/05/10 01:09:47;;;;;;;14.07;12.57;;;13.40;99.90;;;;;;4959093;28;20047;-79
2023/05/10 01:12:13;;;;;;;16.70;13.63;;;13.40;99.90;;;;;;4939854;29;20082;-78
2023/05/10 01:14:39;;;;;;;14.25;12.75;;;13.40;99.90;;;;;;4956304;29;20055;-79
2023/05/10 01:17:06;;;;;;;13.50;11.63;;;13.30;99.90;;;;;;4907619;29;20050;-80
2023/05/10 01:19:34;;;;;;;13.93;12.52;;;13.20;99.90;;;;;;4938597;29;20058;-89
2023/05/10 01:22:09;;;;;;;14.02;12.27;;;13.30;99.90;;;;;;4931292;29;20139;-88
2023/05/10 01:24:46;;;;;;;14.65;13.00;;;13.30;99.90;;;;;;4952596;29;20407;-88
2023/05/10 01:27:14;;;;;;;14.25;12.70;;;13.30;99.90;;;;;;4972177;28;20391;-88
2023/05/10 01:30:05;;;;;;;14.77;13.25;;;13.30;99.90;;;;;;4972838;28;20483;-88
2023/05/10 01:32:39;;;;;;;16.38;13.25;;;13.20;99.90;;;;;;4936693;29;20039;-87
2023/05/10 01:35:16;;;;;;;16.48;14.70;;;13.30;99.90;;;;;;4955708;29;20114;-87
2023/05/10 01:37:48;;;;;;;15.13;13.52;;;13.20;99.90;;;;;;4955524;28;20051;-87
2023/05/10 01:40:18;;;;;;;17.88;15.98;;;13.20;99.90;;;;;;4964888;28;20058;-88
2023/05/10 01:42:51;;;;;;;17.48;15.57;;;13.20;99.90;;;;;;4979410;28;20051;-89
2023/05/10 01:45:17;;;;;;;15.55;13.98;;;13.20;99.90;;;;;;4938104;29;20047;-88
2023/05/10 01:47:47;;;;;;;16.15;14.30;;;13.10;99.90;;;;;;4972464;28;20538;-88
2023/05/10 01:50:26;;;;;;;17.05;14.85;;;13.20;99.90;;;;;;4949494;29;20459;-88
2023/05/10 01:52:55;;;;;;;16.38;13.93;;;13.20;99.90;;;;;;4954403;29;20506;-86
2023/05/10 01:55:23;;;;;;;16.77;14.45;;;13.20;99.90;;;;;;4933681;29;20054;-87
2023/05/10 01:57:58;;;;;;;15.90;14.20;;;13.20;99.90;;;;;;4970620;28;20050;-86
2023/05/10 02:00:25;;;;;;;15.43;13.70;;;13.20;99.90;;;;;;4949143;29;20129;-87
2023/05/10 02:02:52;;;;;;;17.02;14.00;;;13.10;99.90;;;;;;4954068;29;20047;-86
2023/05/10 02:05:20;;;;;;;15.60;13.57;;;13.20;99.90;;;;;;4932913;29;20047;-87
2023/05/10 02:07:47;;;;;;;14.82;13.23;;;13.20;99.90;;;;;;4954153;29;20589;-87
2023/05/10 02:10:14;;;;;;;15.88;12.52;;;13.10;99.90;;;;;;4950501;29;20050;-88
2023/05/10 02:12:42;;;;;;;14.30;12.70;;;13.10;99.90;;;;;;4954429;29;20099;-87
2023/05/10 02:15:11;;;;;;;13.63;12.02;;;13.10;99.90;;;;;;4946721;29;20095;-87
2023/05/10 02:17:38;;;;;;;18.17;13.05;;;13.10;99.90;;;;;;4937734;29;20094;-88
2023/05/10 02:20:06;;;;;;;14.65;12.55;;;13.10;99.90;;;;;;4939145;29;20050;-89
2023/05/10 02:22:33;;;;;;;15.13;12.35;;;13.10;99.90;;;;;;4921970;29;20047;-88
2023/05/10 02:25:00;;;;;;;15.23;12.63;;;13.10;99.90;;;;;;4969721;28;20046;-87
2023/05/10 02:27:29;;;;;;;15.10;12.50;;;13.10;99.90;;;;;;4933323;29;20050;-87
2023/05/10 02:29:56;;;;;;;13.88;11.95;;;13.00;99.90;;;;;;4954334;29;20043;-88
2023/05/10 02:32:24;;;;;;;13.90;12.00;;;13.00;99.90;;;;;;4933506;29;20043;-88
2023/05/10 02:34:51;;;;;;;14.20;11.63;;;13.10;99.90;;;;;;4953528;29;20075;-89
2023/05/10 02:37:20;;;;;;;14.73;12.00;;;13.00;99.90;;;;;;4906765;29;20109;-87
2023/05/10 02:39:51;;;;;;;14.27;11.75;;;13.00;99.90;;;;;;4951241;29;20513;-88
2023/05/10 02:42:19;;;;;;;13.00;11.00;;;13.00;99.90;;;;;;4963503;28;20055;-88
2023/05/10 02:44:51;;;;;;;14.25;12.07;;;13.00;99.90;;;;;;4937947;29;20051;-88
2023/05/10 02:47:18;;;;;;;16.20;12.75;;;13.00;99.90;;;;;;4931869;28;20494;-89
2023/05/10 02:49:43;;;;;;;13.88;11.45;;;13.00;99.90;;;;;;4925479;29;20491;-88
2023/05/10 02:52:11;;;;;;;14.75;12.10;;;13.00;99.90;;;;;;4950474;29;20035;-79
2023/05/10 02:54:44;;;;;;;16.95;11.77;;;12.90;99.90;;;;;;4956717;29;20055;-79
2023/05/10 02:57:15;;;;;;;13.65;11.07;;;13.00;99.90;;;;;;4956965;29;20074;-78
2023/05/10 02:59:42;;;;;;;15.25;12.27;;;13.00;99.90;;;;;;4972769;28;20043;-79
2023/05/10 03:02:10;;;;;;;12.68;10.70;;;12.90;99.90;;;;;;4940736;29;20047;-79
2023/05/10 03:04:35;;;;;;;14.18;12.18;;;12.90;99.90;;;;;;4952700;29;20051;-80
2023/05/10 03:07:02;;;;;;;15.20;11.98;;;12.90;99.90;;;;;;4940531;29;20122;-79
2023/05/10 03:09:29;;;;;;;14.35;11.43;;;12.90;99.90;;;;;;4967656;28;20054;-80
2023/05/10 03:12:11;;;;;;;17.58;13.25;;;12.90;99.90;;;;;;4941058;29;20396;-80
2023/05/10 03:14:57;;;;;;;13.95;11.38;;;12.90;99.90;;;;;;4937068;29;20055;-80
2023/05/10 03:17:46;;;;;;;14.52;11.70;;;12.90;99.90;;;;;;4937150;29;20126;-80
2023/05/10 03:20:21;;;;;;;14.70;12.05;;;12.90;99.90;;;;;;4896050;29;20492;-80
2023/05/10 03:23:08;;;;;;;16.38;12.63;;;12.90;99.90;;;;;;4937133;29;20055;-79
2023/05/10 03:25:34;;;;;;;14.10;12.02;;;12.90;99.90;;;;;;4936811;29;20048;-80
2023/05/10 03:28:02;;;;;;;13.65;11.38;;;12.90;99.90;;;;;;4937225;29;20074;-80
2023/05/10 03:30:28;;;;;;;18.58;14.02;;;12.80;99.90;;;;;;4936997;29;20074;-80
2023/05/10 03:32:54;;;;;;;14.57;12.27;;;12.90;99.90;;;;;;4921043;29;20044;-80
2023/05/10 03:35:20;;;;;;;13.55;11.45;;;12.80;99.90;;;;;;4936756;29;20050;-79
2023/05/10 03:37:46;;;;;;;13.27;11.80;;;12.80;99.90;;;;;;4936790;29;20047;-79
2023/05/10 03:40:13;;;;;;;13.68;11.25;;;12.90;99.90;;;;;;4936953;29;20056;-79
2023/05/10 03:42:39;;;;;;;13.98;11.65;;;12.90;99.90;;;;;;4920860;29;20051;-79
2023/05/10 03:45:05;;;;;;;13.18;10.93;;;12.90;99.90;;;;;;4904912;29;20055;-79
2023/05/10 03:47:31;;;;;;;15.52;12.43;;;12.90;99.90;;;;;;4936852;29;20048;-79
2023/05/10 03:49:57;;;;;;;13.23;11.25;;;12.90;99.90;;;;;;4905015;29;20058;-79
2023/05/10 03:52:23;;;;;;;14.07;11.57;;;12.90;99.90;;;;;;4904947;29;20398;-79
2023/05/10 03:54:48;;;;;;;13.48;11.05;;;12.80;99.90;;;;;;4936487;29;20522;-79
2023/05/10 03:57:14;;;;;;;13.32;11.27;;;12.90;99.90;;;;;;4904868;29;20040;-79
2023/05/10 03:59:40;;;;;;;12.18;10.45;;;12.90;99.90;;;;;;4919473;29;20562;-78
2023/05/10 04:02:05;;;;;;;13.15;11.27;;;12.90;99.90;;;;;;4936382;29;20562;-79
2023/05/10 04:04:31;;;;;;;13.18;11.00;;;12.90;99.90;;;;;;4920442;29;20491;-79
2023/05/10 04:06:57;;;;;;;13.10;10.43;;;12.90;99.90;;;;;;4904743;29;20499;-78
2023/05/10 04:09:23;;;;;;;12.82;11.25;;;12.90;99.90;;;;;;4936068;29;20521;-78
2023/05/10 04:11:49;;;;;;;12.32;9.90;;;12.90;99.90;;;;;;4944988;28;20054;-78
2023/05/10 04:14:14;;;;;;;12.90;9.50;;;12.90;99.90;;;;;;4939008;29;20059;-79
2023/05/10 04:16:40;;;;;;;10.90;9.27;;;12.90;99.90;;;;;;4952122;29;20050;-78
2023/05/10 04:19:06;;;;;;;11.32;8.52;;;12.80;99.90;;;;;;4931857;29;20054;-78
2023/05/10 04:21:32;;;;;;;10.57;8.85;;;12.90;99.90;;;;;;4971123;28;20137;-79
2023/05/10 04:23:58;;;;;;;10.18;8.23;;;12.90;99.90;;;;;;4971399;28;20130;-79
2023/05/10 04:26:25;;;;;;;9.07;7.15;;;12.90;99.90;;;;;;4923197;29;20048;-79
2023/05/10 04:28:51;;;;;;;8.98;7.35;;;12.90;99.90;;;;;;4937510;29;20047;-79
2023/05/10 04:31:17;;;;;;;10.23;8.10;;;12.90;99.90;;;;;;4948824;29;20545;-79
2023/05/10 04:33:42;;;;;;;9.70;7.78;;;12.80;99.90;;;;;;4970969;28;20043;-79
2023/05/10 04:36:08;;;;;;;12.80;7.72;;;12.80;99.90;;;;;;4963831;28;20551;-79
2023/05/10 04:38:34;;;;;;;9.80;8.13;;;12.80;99.90;;;;;;4971106;28;20130;-79
2023/05/10 04:41:08;;;;;;;11.18;7.95;;;12.80;99.90;;;;;;4971081;28;20119;-79
2023/05/10 04:43:34;;;;;;;10.55;8.30;;;12.80;99.90;;;;;;4966790;28;20043;-79
2023/05/10 04:46:00;;;;;;;10.90;8.68;;;12.80;99.90;;;;;;4938575;29;20040;-79
2023/05/10 04:48:25;;;;;;;11.10;9.55;;;12.80;99.90;;;;;;4933601;29;20046;-79
2023/05/10 04:50:51;;;;;;;11.98;10.35;;;12.80;99.90;;;;;;4939459;29;20510;-83
2023/05/10 04:53:17;;;;;;;12.18;10.13;;;12.80;99.90;;;;;;4945219;28;20062;-88
2023/05/10 04:55:42;;;;;;;13.75;10.15;;;12.80;99.90;;;;;;4957759;29;20508;-88
2023/05/10 04:58:08;;;;;;;12.93;10.30;;;12.90;99.90;;;;;;4977578;28;20133;-87
2023/05/10 05:00:35;;;;;;;15.57;11.38;;;12.80;99.90;;;;;;4988372;28;20089;-88
2023/05/10 05:03:00;;;;;;;13.65;10.77;;;12.90;99.90;;;;;;4980125;28;20043;-88
2023/05/10 05:05:26;;;;;;;13.40;11.25;;;12.90;99.90;;;;;;4973740;28;20047;-89
2023/05/10 05:07:52;;;;;;;13.80;11.43;;;12.90;99.90;;;;;;4946560;29;20517;-89
2023/05/10 05:10:18;;;;;;;13.80;10.57;;;12.90;99.90;;;;;;4945579;29;20062;-88
2023/05/10 05:12:44;;;;;;;13.00;10.80;;;13.00;99.90;;;;;;4939006;29;20047;-88
2023/05/10 05:15:10;;;;;;;13.13;11.52;;;12.90;99.90;;;;;;4968722;28;20039;-88
2023/05/10 05:17:36;;;;;;;13.15;10.60;;;13.00;99.90;;;;;;4992092;28;20051;-89
2023/05/10 05:20:02;;;;;;;14.57;11.95;;;12.90;99.90;;;;;;4989644;28;20043;-88
2023/05/10 05:22:28;;;;;;;15.10;10.50;;;12.90;99.90;;;;;;4987331;28;20027;-89
2023/05/10 05:24:56;;;;;;;15.27;11.23;;;12.90;99.90;;;;;;5204276;23;20123;-90
2023/05/10 05:27:27;;;;;;;15.07;11.40;;;12.90;99.90;;;;;;5213541;23;21172;-86
2023/05/10 05:30:02;;;;;;;14.38;11.48;;;12.90;99.90;;;;;;4959769;28;20111;-89
2023/05/10 05:32:33;;;;;;;14.75;12.07;;;12.80;99.90;;;;;;5059399;23;20436;-87
2023/05/10 05:40:49;;;;;;;18.27;12.70;;;13.00;99.90;;;;;;4954696;28;20057;-88
2023/05/10 05:43:21;;;;;;;15.20;12.00;;;12.90;99.90;;;;;;4966498;28;20157;-88
2023/05/10 05:45:49;;;;;;;14.38;11.77;;;13.00;99.90;;;;;;4972615;28;20027;-87
2023/05/10 05:48:18;;;;;;;16.70;12.82;;;13.00;99.90;;;;;;4946541;29;20103;-88
2023/05/10 05:50:47;;;;;;;15.63;12.90;;;13.10;99.90;;;;;;4956160;28;20039;-87
2023/05/10 05:56:00;;;;;;;14.43;11.90;;;13.10;99.90;;;;;;4979312;28;20059;-88
2023/05/10 05:58:26;;;;;;;15.57;11.60;;;13.00;99.90;;;;;;4977784;28;20057;-88
2023/05/10 06:03:33;;;;;;;21.17;13.00;;;13.30;99.90;;;;;;5838098;23;20042;-84
2023/05/10 06:06:02;;;;;;;17.23;13.63;;;13.50;99.90;;;;;;4982079;28;20125;-87
2023/05/10 06:08:27;;;;;;;14.63;11.48;;;13.20;99.90;;;;;;5010172;28;20046;-87
2023/05/10 06:10:56;;;;;;;14.77;12.02;;;13.30;99.90;;;;;;4969358;28;20027;-87
2023/05/10 06:16:05;;;;;;;16.58;12.20;;;13.20;99.90;;;;;;4994844;28;20050;-88
2023/05/10 06:18:34;;;;;;;16.77;11.77;;;13.20;99.90;;;;;;4975684;23;20026;-86
2023/05/10 06:21:05;;;;;;;15.07;10.50;;;13.10;99.90;;;;;;4985491;28;20058;-87
2023/05/10 06:23:34;;;;;;;12.57;9.85;;;13.20;99.90;;;;;;4948361;28;20046;-89
2023/05/10 06:26:09;;;;;;;13.77;10.98;;;13.30;99.90;;;;;;4986312;28;20047;-87
2023/05/10 06:28:44;;;;;;;15.65;11.27;;;13.30;99.90;;;;;;4994610;28;20046;-87
2023/05/10 06:31:16;;;;;;;15.85;12.27;;;12.90;99.90;;;;;;5462282;23;20046;-88
2023/05/10 06:33:42;;;;;;;16.08;11.52;;;13.20;99.90;;;;;;5027967;23;20054;-87
2023/05/10 06:36:11;;;;;;;15.57;10.88;;;13.40;99.90;;;;;;4992595;28;20085;-88
2023/05/10 06:38:37;;;;;;;15.57;10.55;;;13.20;99.90;;;;;;4997678;28;20050;-86
2023/05/10 06:41:16;;;;;;;;;;;;;;;;;;;;;
2023/05/10 06:43:57;;;;;;;15.75;10.05;;;13.20;99.90;;;;;;4994305;28;20066;-88
2023/05/10 06:46:23;;;;;;;13.23;9.88;;;13.50;99.90;;;;;;4985618;28;20082;-89
2023/05/10 06:48:49;;;;;;;12.45;9.50;;;13.50;99.90;;;;;;4954102;28;20035;-89
2023/05/10 06:51:21;;;;;;;13.25;9.65;;;13.20;99.90;;;;;;4983383;28;20019;-90
2023/05/10 06:53:54;;;;;;;14.38;10.43;;;13.00;99.90;;;;;;4987516;28;20043;-88
2023/05/10 06:56:21;;;;;;;14.55;9.75;;;13.20;99.90;;;;;;4967827;28;20077;-87
2023/05/10 06:58:50;;;;;;;14.25;9.25;;;13.20;99.90;;;;;;4988126;28;20042;-88
2023/05/10 07:01:19;;;;;;;13.25;9.38;;;13.20;99.90;;;;;;4984806;28;20078;-89
2023/05/10 07:03:51;;;;;;;13.02;9.68;;;13.10;99.90;;;;;;4990769;28;20035;-88
2023/05/10 07:06:26;;;;;;;13.45;8.93;;;13.20;99.90;;;;;;4968044;28;20046;-87
2023/05/10 07:08:55;;;;;;;12.63;8.98;;;13.20;99.90;;;;;;4991681;28;20054;-88
2023/05/10 07:11:27;;;;;;;13.27;9.13;;;13.20;99.90;;;;;;4941197;28;20074;-87
2023/05/10 07:13:53;;;;;;;10.88;8.18;;;13.10;99.90;;;;;;4959018;28;20107;-89
2023/05/10 07:16:20;;;;;;;13.48;8.68;;;13.00;99.90;;;;;;4984526;28;20502;-88
2023/05/10 07:18:50;;;;;;;11.25;8.13;;;13.30;99.90;;;;;;4989270;28;20046;-88
2023/05/10 07:21:23;;;;;;;12.05;8.10;;;13.30;99.90;;;;;;4948152;28;20069;-88
2023/05/10 07:23:49;;;;;;;11.75;7.72;;;13.50;99.90;;;;;;4989657;28;20047;-88
2023/05/10 07:26:25;;;;;;;9.55;6.95;;;13.30;99.90;;;;;;4976814;28;20133;-87
2023/05/10 07:28:50;;;;;;;9.25;6.47;;;13.40;99.90;;;;;;4986262;28;20053;-89
2023/05/10 07:31:16;;;;;;;11.07;7.43;;;13.50;99.90;;;;;;4967625;28;20070;-87
2023/05/10 07:33:46;;;;;;;12.00;7.25;;;13.50;99.90;;;;;;4986301;28;20057;-87
2023/05/10 07:36:24;;;;;;;9.90;7.18;;;13.50;99.90;;;;;;4979139;28;20196;-87
2023/05/10 07:38:53;;;;;;;12.43;7.70;;;13.50;99.90;;;;;;4954806;28;20398;-88
2023/05/10 07:41:20;;;;;;;11.10;7.13;;;13.20;99.90;;;;;;4978308;28;20096;-91
2023/05/10 07:43:46;;;;;;;9.32;6.68;;;13.60;99.90;;;;;;4950433;28;20375;-87
2023/05/10 07:46:12;;;;;;;9.43;6.38;;;13.60;99.90;;;;;;4955050;28;20050;-87
2023/05/10 07:48:38;;;;;;;10.13;6.90;;;13.70;99.90;;;;;;4981641;28;20039;-86
2023/05/10 07:51:09;;;;;;;9.43;6.13;;;13.90;99.90;;;;;;4971804;28;20129;-88
2023/05/10 07:53:35;;;;;;;9.02;6.32;;;13.70;99.90;;;;;;4962418;28;20079;-88
2023/05/10 07:56:22;;;;;;;9.48;6.90;;;13.70;99.90;;;;;;4979629;28;20047;-87
2023/05/10 07:58:51;;;;;;;8.88;6.30;;;13.70;99.90;;;;;;4977471;28;20051;-88
2023/05/10 08:01:17;;;;;;;10.30;7.28;;;13.70;99.90;;;;;;4972033;28;20043;-88
2023/05/10 08:03:43;;;;;;;9.52;6.72;;;13.80;99.90;;;;;;4980662;28;20450;-86
2023/05/10 08:06:10;;;;;;;10.25;7.53;;;14.00;99.90;;;;;;4941002;29;20114;-87
2023/05/10 08:08:36;;;;;;;10.27;7.30;;;13.80;99.90;;;;;;4936919;29;20051;-86
2023/05/10 08:11:02;;;;;;;9.18;7.10;;;13.80;99.90;;;;;;4943888;29;20039;-87
2023/05/10 08:13:28;;;;;;;10.35;6.55;;;13.90;99.90;;;;;;4944476;29;20047;-88
2023/05/10 08:15:54;;;;;;;9.90;6.88;;;14.00;99.90;;;;;;4946738;29;20430;-86
2023/05/10 08:18:20;;;;;;;9.63;6.82;;;14.00;99.90;;;;;;4927220;29;20078;-88
2023/05/10 08:20:49;;;;;;;10.18;6.85;;;14.10;99.90;;;;;;4929493;29;20054;-87
2023/05/10 08:23:15;;;;;;;12.52;7.53;;;14.20;99.90;;;;;;4938174;29;20419;-87
2023/05/10 08:25:41;;;;;;;10.40;6.72;;;14.20;99.90;;;;;;4969444;29;20044;-87
2023/05/10 08:28:12;;;;;;;9.80;6.88;;;14.30;99.90;;;;;;4941222;29;20039;-87
2023/05/10 08:30:42;;;;;;;8.93;7.13;;;14.30;99.90;;;;;;4934184;29;20049;-89
2023/05/10 08:33:17;;;;;;;9.48;6.80;;;14.30;99.90;;;;;;4968354;29;20047;-89
2023/05/10 08:35:46;;;;;;;8.43;6.03;;;14.20;99.90;;;;;;4989412;28;20042;-88
2023/05/10 08:38:21;;;;;;;9.35;6.65;;;14.30;99.90;;;;;;4978852;28;20066;-87
2023/05/10 08:40:50;;;;;;;8.75;6.57;;;14.20;99.90;;;;;;4991794;28;20034;-88
2023/05/10 08:43:16;;;;;;;9.85;6.00;;;14.30;99.90;;;;;;4972760;28;20093;-87
2023/05/10 08:45:49;;;;;;;8.38;5.20;;;14.30;99.90;;;;;;4945437;28;20619;-87
2023/05/10 08:48:19;;;;;;;8.35;5.13;;;14.40;99.90;;;;;;4979944;28;20043;-87
2023/05/10 08:50:46;;;;;;;7.90;4.65;;;14.40;99.90;;;;;;5196779;23;21023;-88
2023/05/10 08:53:15;;;;;;;6.95;4.20;;;14.60;99.90;;;;;;4912593;29;20047;-89
2023/05/10 08:55:42;;;;;;;5.97;3.38;;;14.40;99.90;;;;;;4944810;28;20043;-88
2023/05/10 08:58:09;;;;;;;5.95;3.85;;;14.40;99.90;;;;;;4943737;29;20143;-86
2023/05/10 09:00:36;;;;;;;6.80;3.53;;;14.40;99.90;;;;;;4940433;29;20043;-85
2023/05/10 09:03:05;;;;;;;5.47;3.20;;;14.50;99.90;;;;;;4889104;29;20036;-86
2023/05/10 09:05:31;;;;;;;5.30;3.20;;;14.60;99.90;;;;;;4919456;29;20448;-85
2023/05/10 09:08:01;;;;;;;5.07;3.00;;;14.70;99.90;;;;;;4934710;29;20047;-86
2023/05/10 09:10:28;;;;;;;5.85;2.63;;;14.80;99.90;;;;;;4930142;29;20415;-86
2023/05/10 09:12:56;;;;;;;5.93;3.38;;;14.80;99.90;;;;;;4935670;29;20194;-86
2023/05/10 09:15:22;;;;;;;6.97;4.10;;;14.80;99.90;;;;;;4931202;29;20499;-86
2023/05/10 09:17:49;;;;;;;6.47;3.40;;;14.80;99.90;;;;;;4936977;29;20040;-88
2023/05/10 09:20:17;;;;;;;4.88;2.90;;;14.80;99.90;;;;;;4931084;29;20048;-87
2023/05/10 09:22:43;;;;;;;5.20;2.80;;;14.80;99.90;;;;;;4936594;29;20043;-87
2023/05/10 09:25:11;;;;;;;5.78;2.83;;;14.90;99.90;;;;;;4914999;29;20099;-87
2023/05/10 09:27:43;;;;;;;4.88;2.90;;;15.00;99.90;;;;;;4936567;29;20051;-86
2023/05/10 09:30:09;;;;;;;5.85;3.40;;;14.90;99.90;;;;;;4936009;29;20079;-85
2023/05/10 09:32:40;;;;;;;6.05;3.42;;;14.90;99.90;;;;;;4950606;29;20047;-86
2023/05/10 09:35:20;;;;;;;6.53;3.63;;;15.00;99.90;;;;;;4920183;29;20051;-85
2023/05/10 09:37:48;;;;;;;30.42;26.75;;;15.00;99.90;;;;;;4918609;29;20040;-85
2023/05/10 09:40:25;;;;;;;8.15;6.07;;;15.00;99.90;;;;;;4929659;29;20412;-85
2023/05/10 09:42:54;;;;;;;8.32;5.15;;;15.10;99.90;;;;;;4931671;29;20052;-86
2023/05/10 09:45:21;;;;;;;8.35;5.90;;;15.10;99.90;;;;;;4926324;29;20059;-85
2023/05/10 09:47:47;;;;;;;9.27;5.97;;;15.20;99.90;;;;;;4935400;29;20055;-85
2023/05/10 09:50:13;;;;;;;8.40;5.28;;;15.30;99.90;;;;;;4947580;29;20127;-85
2023/05/10 09:52:50;;;;;;;8.25;5.45;;;15.30;99.90;;;;;;4935329;29;20083;-85
2023/05/10 09:55:17;;;;;;;9.93;7.28;;;15.20;99.90;;;;;;4920015;29;20051;-85
2023/05/10 09:57:43;;;;;;;7.40;5.43;;;15.10;99.90;;;;;;4936223;29;20102;-85
2023/05/10 10:00:12;;;;;;;7.78;5.30;;;15.00;99.90;;;;;;4924683;29;20051;-85
2023/05/10 10:02:39;;;;;;;7.45;5.22;;;14.90;99.90;;;;;;4908302;29;20055;-84
2023/05/10 10:05:07;;;;;;;9.30;5.70;;;14.90;99.90;;;;;;4908696;29;20039;-85
2023/05/10 10:07:33;;;;;;;7.80;5.68;;;14.90;99.90;;;;;;4941348;29;20047;-86
2023/05/10 10:10:00;;;;;;;8.13;5.35;;;14.90;99.90;;;;;;4925098;29;20047;-85
2023/05/10 10:12:26;;;;;;;9.82;6.40;;;14.90;99.90;;;;;;4939318;29;20043;-84
2023/05/10 10:14:53;;;;;;;9.60;6.32;;;14.90;99.90;;;;;;4942569;29;20048;-85
2023/05/10 10:17:20;;;;;;;9.90;6.00;;;14.90;99.90;;;;;;4892645;29;20399;-85
2023/05/10 10:19:48;;;;;;;8.93;5.95;;;14.80;99.90;;;;;;4922566;29;20050;-86
2023/05/10 10:22:14;;;;;;;9.70;6.63;;;14.80;99.90;;;;;;4938681;29;20051;-85
2023/05/10 10:24:40;;;;;;;9.95;7.32;;;14.80;99.90;;;;;;4938106;29;20050;-84
2023/05/10 10:27:35;;;;;;;12.15;7.18;;;14.80;99.90;;;;;;4938371;29;20427;-85
2023/05/10 10:30:31;;;;;;;9.80;7.15;;;14.80;99.90;;;;;;4938300;29;20122;-85
2023/05/10 10:33:03;;;;;;;10.73;7.93;;;15.00;99.90;;;;;;4909357;29;133698;-84
2023/05/10 10:35:32;;;;;;;9.88;7.55;;;15.10;99.90;;;;;;4925228;29;20158;-85
2023/05/10 10:37:59;;;;;;;10.20;7.70;;;15.30;99.90;;;;;;4941508;29;20533;-84
2023/05/10 10:40:33;;;;;;;9.85;7.55;;;15.40;99.90;;;;;;4941026;29;20097;-85
2023/05/10 10:43:23;;;;;;;11.32;8.25;;;15.50;99.90;;;;;;4925523;29;20581;-84
2023/05/10 10:46:13;;;;;;;10.55;7.72;;;15.40;99.90;;;;;;4956941;29;20479;-84
2023/05/10 10:49:09;;;;;;;10.68;7.78;;;15.50;99.90;;;;;;4941226;29;20155;-85
2023/05/10 10:51:39;;;;;;;11.73;7.60;;;15.60;99.90;;;;;;4936484;29;20487;-85
2023/05/10 10:54:11;;;;;;;13.15;9.25;;;15.70;99.90;;;;;;4909328;29;20062;-84
2023/05/10 10:56:38;;;;;;;42.15;29.73;;;15.80;99.90;;;;;;4957025;29;20407;-84
2023/05/10 10:59:03;;;;;;;9.65;7.40;;;15.90;99.90;;;;;;4924953;29;20054;-84
2023/05/10 11:01:36;;;;;;;9.00;7.30;;;16.00;99.90;;;;;;4956657;29;20039;-85
2023/05/10 11:04:05;;;;;;;9.35;7.07;;;16.20;99.90;;;;;;4925007;29;20050;-83
2023/05/10 11:06:33;;;;;;;8.98;6.90;;;16.30;99.90;;;;;;4956553;29;20047;-84
2023/05/10 11:09:05;;;;;;;9.88;7.13;;;16.30;99.90;;;;;;4924204;29;20106;-83
2023/05/10 11:11:30;;;;;;;;;;;16.30;99.90;;;;;;4926325;29;20045;-83
2023/05/10 11:14:06;;;;;;;9.85;7.28;;;16.30;99.90;;;;;;4940491;29;20013;-83
2023/05/10 11:16:45;;;;;;;11.20;7.78;;;16.30;99.90;;;;;;4956425;29;20046;-83
2023/05/10 11:19:12;;;;;;;9.40;7.35;;;16.20;99.90;;;;;;4908850;29;20127;-83
2023/05/10 11:21:51;;;;;;;11.00;8.20;;;16.10;99.90;;;;;;4924426;29;20043;-83
2023/05/10 11:24:22;;;;;;;10.75;8.02;;;16.00;99.90;;;;;;4956265;29;20039;-83
2023/05/10 11:26:51;;;;;;;11.35;8.75;;;15.90;99.90;;;;;;4956175;29;20054;-83
2023/05/10 11:29:17;;;;;;;10.15;8.02;;;15.90;99.90;;;;;;4956243;29;20199;-83
2023/05/10 11:31:48;;;;;;;9.95;7.32;;;15.90;99.90;;;;;;4940583;29;20039;-83
2023/05/10 11:34:24;;;;;;;9.95;7.03;;;15.90;99.90;;;;;;4940197;29;20078;-83
2023/05/10 11:36:54;;;;;;;10.70;6.70;;;15.80;99.90;;;;;;4940145;29;20044;-84
2023/05/10 11:39:21;;;;;;;8.32;6.45;;;15.70;99.90;;;;;;4924658;29;20043;-83
2023/05/10 11:41:50;;;;;;;7.82;5.35;;;15.70;99.90;;;;;;4956019;29;20042;-84
2023/05/10 11:44:16;;;;;;;8.88;6.00;;;15.70;99.90;;;;;;4924100;29;20121;-84
2023/05/10 11:46:42;;;;;;;9.10;6.50;;;15.70;99.90;;;;;;4924118;29;20058;-84
2023/05/10 11:49:08;;;;;;;9.18;6.47;;;15.80;99.90;;;;;;4955826;29;20047;-84
2023/05/10 11:51:39;;;;;;;9.63;7.03;;;15.80;99.90;;;;;;4955748;29;20074;-84
2023/05/10 11:54:11;;;;;;;9.45;6.68;;;15.90;99.90;;;;;;4956123;29;20782;-84
2023/05/10 11:56:39;;;;;;;9.43;6.72;;;15.90;99.90;;;;;;4923959;29;20043;-83
2023/05/10 11:59:05;;;;;;;8.25;5.75;;;16.00;99.90;;;;;;4955804;28;20043;-84
2023/05/10 12:01:31;;;;;;;7.57;5.13;;;16.10;99.90;;;;;;4955579;29;20035;-84
2023/05/10 12:03:59;;;;;;;7.80;5.00;;;16.10;99.90;;;;;;4923875;29;20081;-84
2023/05/10 12:06:30;;;;;;;8.65;5.07;;;16.20;99.90;;;;;;4955698;29;20074;-84
2023/05/10 12:08:57;;;;;;;8.23;5.07;;;16.30;99.90;;;;;;4955563;29;20049;-84
2023/05/10 12:11:27;;;;;;;7.93;5.32;;;16.40;99.90;;;;;;4955267;29;20094;-83
2023/05/10 12:13:54;;;;;;;8.80;5.03;;;16.50;99.90;;;;;;4955640;29;20490;-83
2023/05/10 12:16:25;;;;;;;7.25;5.18;;;16.50;99.90;;;;;;4923684;29;20078;-83
2023/05/10 12:18:52;;;;;;;9.07;5.13;;;16.50;99.90;;;;;;4955294;29;20039;-84
2023/05/10 12:21:20;;;;;;;7.60;5.30;;;16.60;99.90;;;;;;4922748;29;20052;-82
2023/05/10 12:23:50;;;;;;;17.05;6.03;;;16.60;99.90;;;;;;4955240;29;20047;-83
2023/05/10 12:26:16;;;;;;;14.48;5.90;;;16.60;99.90;;;;;;4955118;29;20079;-83
2023/05/10 12:28:42;;;;;;;9.25;5.65;;;16.60;99.90;;;;;;4955360;29;20510;-83
2023/05/10 12:31:08;;;;;;;11.82;6.07;;;16.70;99.90;;;;;;4938963;29;20035;-84
2023/05/10 12:33:42;;;;;;;17.05;6.10;;;16.70;99.90;;;;;;4954994;29;20164;-82
2023/05/10 12:36:13;;;;;;;12.15;5.80;;;16.70;99.90;;;;;;4954955;29;20043;-82
2023/05/10 12:38:43;;;;;;;33.50;7.95;;;16.70;99.90;;;;;;4954850;29;20047;-83
2023/05/10 12:41:11;;;;;;;26.77;7.25;;;16.70;99.90;;;;;;4955132;29;20514;-83
2023/05/10 12:43:38;;;;;;;43.50;8.80;;;16.70;99.90;;;;;;4938740;29;20078;-83
2023/05/10 12:46:12;;;;;;;23.60;6.70;;;16.70;99.90;;;;;;4954688;29;20043;-83
2023/05/10 12:48:40;;;;;;;18.27;6.63;;;16.80;99.90;;;;;;4954630;29;20078;-82
2023/05/10 12:51:11;;;;;;;15.77;7.05;;;16.80;99.90;;;;;;4938512;29;20039;-83
2023/05/10 12:53:38;;;;;;;11.98;6.60;;;16.80;99.90;;;;;;4954878;29;20503;-82
2023/05/10 12:56:04;;;;;;;12.32;6.57;;;16.80;99.90;;;;;;4922931;29;20053;-81
2023/05/10 12:58:30;;;;;;;11.27;6.50;;;16.90;99.90;;;;;;4923026;29;20387;-82